MOL Explorer — 3EKT8 — position and weather

sailwx.info

Track history (hours):
 
Tides and Currents Weather Stations Pressure Air Temp Water Temp Dewpoint Dewpoint Depression Visibility Wind Speed Wind Dir Waves Ship Positions

MOL Explorer

Last reported at 2017-Apr-19 21:36 UTC. Time now 2017-Apr-28 21:43 UTC.
Position N 22°19' E 114°06'.
Warning: this ship's position is 9 days out of date.

Length 293 m; draft 13.2 m.

Type: Ship (hazmat cat A). MMSI: 372827000.

Date/timePositionNaut miles runAvg speedWind from/ knotsBaromVisibWave heightAir tempDewpointWater temp
2017-Apr-19 21:36N 22°19' E 114°06'1 7.1
2017-Apr-19 21:30N 22°19' E 114°07'  
2017-Apr-13 03:39N 01°15' E 104°06'213.2
2017-Apr-13 03:31N 01°14' E 104°04'713.1
2017-Apr-13 03:00N 01°14' E 103°57'510.3
2017-Apr-13 02:30N 01°11' E 103°53'4 8.2
2017-Apr-13 02:00N 01°12' E 103°48'4 7.3
2017-Apr-13 01:30N 01°16' E 103°47'0 0.1
2017-Apr-13 00:59N 01°16' E 103°47'0 0.0
2017-Apr-13 00:26N 01°16' E 103°47'0 0.0
2017-Apr-12 23:59N 01°16' E 103°47'0 0.0
2017-Apr-12 23:26N 01°16' E 103°47'0 0.0
2017-Apr-12 22:56N 01°16' E 103°47'0 0.0
2017-Apr-12 22:29N 01°16' E 103°47'0 0.0
2017-Apr-12 21:50N 01°16' E 103°47'0 0.0
2017-Apr-12 21:29N 01°16' E 103°47'0 0.1
2017-Apr-12 20:56N 01°16' E 103°47'0 0.0
2017-Apr-12 20:29N 01°16' E 103°47'0 0.0
2017-Apr-12 19:59N 01°16' E 103°47'0 0.0
2017-Apr-12 19:29N 01°16' E 103°47'0 0.1
2017-Apr-12 18:56N 01°16' E 103°47'0 0.0
2017-Apr-12 18:29N 01°16' E 103°47'0 0.0
2017-Apr-12 17:59N 01°16' E 103°47'0 0.0
2017-Apr-12 17:29N 01°16' E 103°47'0 0.0
2017-Apr-12 16:53N 01°16' E 103°47'0 0.0
2017-Apr-12 16:29N 01°16' E 103°47'0 0.0
2017-Apr-12 15:59N 01°16' E 103°47'0 0.0
2017-Apr-12 15:26N 01°16' E 103°47'0 0.0
2017-Apr-12 14:59N 01°16' E 103°47'0 0.0
2017-Apr-12 13:59N 01°16' E 103°47'0 0.0
2017-Apr-12 13:26N 01°16' E 103°47'0 0.0
2017-Apr-12 12:59N 01°16' E 103°47'0 0.1
2017-Apr-12 12:23N 01°16' E 103°47'0 0.1
2017-Apr-12 11:59N 01°16' E 103°47'0 0.0
2017-Apr-12 10:47N 01°16' E 103°47'0 0.2
2017-Apr-12 10:29N 01°16' E 103°47'0 0.0
2017-Apr-12 09:59N 01°16' E 103°47'0 0.1
2017-Apr-12 09:17N 01°16' E 103°47'0 0.7
2017-Apr-12 09:00N 01°15' E 103°47'1 2.0
2017-Apr-12 08:30N 01°15' E 103°47'3 6.5
2017-Apr-12 08:00N 01°14' E 103°43'510.2
2017-Apr-12 07:30N 01°12' E 103°39'3 5.2
2017-Apr-12 07:00N 01°13' E 103°36'611.1
2017-Apr-12 06:30N 01°10' E 103°31'1018.4
2017-Apr-12 05:57N 01°15' E 103°22'5813.6
2017-Apr-12 01:39N 01°45' E 102°32'213.6
2017-Apr-12 01:30N 01°46' E 102°31'713.6
2017-Apr-12 01:00N 01°49' E 102°24'713.5
2017-Apr-12 00:30N 01°52' E 102°19'  
Track history (hours):
 
Tides and Currents Weather Stations Pressure Air Temp Water Temp Dewpoint Dewpoint Depression Visibility Wind Speed Wind Dir Waves Ship Positions

MOL Explorer

Last reported at 2017-Apr-19 21:36 UTC. Time now 2017-Apr-28 21:43 UTC.
Position N 22°19' E 114°06'.
Warning: this ship's position is 9 days out of date.

Length 293 m; draft 13.2 m.

Type: Ship (hazmat cat A). MMSI: 372827000.

Date/timePositionNaut miles runAvg speedWind from/ knotsBaromVisibWave heightAir tempDewpointWater temp
2017-Apr-19 21:36N 22°19' E 114°06'1 7.1
2017-Apr-19 21:30N 22°19' E 114°07'  
2017-Apr-13 03:39N 01°15' E 104°06'213.2
2017-Apr-13 03:31N 01°14' E 104°04'713.1
2017-Apr-13 03:00N 01°14' E 103°57'510.3
2017-Apr-13 02:30N 01°11' E 103°53'4 8.2
2017-Apr-13 02:00N 01°12' E 103°48'4 7.3
2017-Apr-13 01:30N 01°16' E 103°47'0 0.1
2017-Apr-13 00:59N 01°16' E 103°47'0 0.0
2017-Apr-13 00:26N 01°16' E 103°47'0 0.0
2017-Apr-12 23:59N 01°16' E 103°47'0 0.0
2017-Apr-12 23:26N 01°16' E 103°47'0 0.0
2017-Apr-12 22:56N 01°16' E 103°47'0 0.0
2017-Apr-12 22:29N 01°16' E 103°47'0 0.0
2017-Apr-12 21:50N 01°16' E 103°47'0 0.0
2017-Apr-12 21:29N 01°16' E 103°47'0 0.1
2017-Apr-12 20:56N 01°16' E 103°47'0 0.0
2017-Apr-12 20:29N 01°16' E 103°47'0 0.0
2017-Apr-12 19:59N 01°16' E 103°47'0 0.0
2017-Apr-12 19:29N 01°16' E 103°47'0 0.1
2017-Apr-12 18:56N 01°16' E 103°47'0 0.0
2017-Apr-12 18:29N 01°16' E 103°47'0 0.0
2017-Apr-12 17:59N 01°16' E 103°47'0 0.0
2017-Apr-12 17:29N 01°16' E 103°47'0 0.0
2017-Apr-12 16:53N 01°16' E 103°47'0 0.0
2017-Apr-12 16:29N 01°16' E 103°47'0 0.0
2017-Apr-12 15:59N 01°16' E 103°47'0 0.0
2017-Apr-12 15:26N 01°16' E 103°47'0 0.0
2017-Apr-12 14:59N 01°16' E 103°47'0 0.0
2017-Apr-12 13:59N 01°16' E 103°47'0 0.0
2017-Apr-12 13:26N 01°16' E 103°47'0 0.0
2017-Apr-12 12:59N 01°16' E 103°47'0 0.1
2017-Apr-12 12:23N 01°16' E 103°47'0 0.1
2017-Apr-12 11:59N 01°16' E 103°47'0 0.0
2017-Apr-12 10:47N 01°16' E 103°47'0 0.2
2017-Apr-12 10:29N 01°16' E 103°47'0 0.0
2017-Apr-12 09:59N 01°16' E 103°47'0 0.1
2017-Apr-12 09:17N 01°16' E 103°47'0 0.7
2017-Apr-12 09:00N 01°15' E 103°47'1 2.0
2017-Apr-12 08:30N 01°15' E 103°47'3 6.5
2017-Apr-12 08:00N 01°14' E 103°43'510.2
2017-Apr-12 07:30N 01°12' E 103°39'3 5.2
2017-Apr-12 07:00N 01°13' E 103°36'611.1
2017-Apr-12 06:30N 01°10' E 103°31'1018.4
2017-Apr-12 05:57N 01°15' E 103°22'5813.6
2017-Apr-12 01:39N 01°45' E 102°32'213.6
2017-Apr-12 01:30N 01°46' E 102°31'713.6
2017-Apr-12 01:00N 01°49' E 102°24'713.5
2017-Apr-12 00:30N 01°52' E 102°19'  

Dump ship's entire track history